Time;durP1;ratioP1;P1;durP2;ratioP2;P2;SDS_P1;SDS_P2;PMS_P1;PMS_P2;Temp;Humidity;BMP_temperature;BMP_pressure;BME280_temperature;BME280_humidity;BME280_pressure;Samples;Min_cycle;Max_cycle;Signal;HPM_P1;HPM_P2
2022/07/20 00:02:34;;;;;;;3.65;1.20;;;30.30;52.20;;;;;;10980817;32;20060;-72
2022/07/20 00:14:57;;;;;;;1.42;1.33;;;30.10;52.50;;;;;;10981406;32;20023;-72
2022/07/20 00:20:58;;;;;;;2.83;1.17;;;29.90;52.90;;;;;;10980987;32;20053;-72
2022/07/20 00:27:00;;;;;;;2.55;1.15;;;29.90;52.70;;;;;;10980736;32;20422;-72
2022/07/20 00:33:02;;;;;;;1.40;0.98;;;29.90;53.40;;;;;;10980733;32;20044;-71
2022/07/20 00:39:04;;;;;;;2.37;1.12;;;29.50;54.40;;;;;;10980201;32;20058;-71
2022/07/20 00:45:08;;;;;;;2.47;1.33;;;29.50;54.80;;;;;;10980338;32;20034;-71
2022/07/20 00:51:10;;;;;;;4.43;2.15;;;29.50;55.00;;;;;;10980112;32;20027;-71
2022/07/20 00:57:12;;;;;;;1.90;1.25;;;29.60;54.70;;;;;;10980068;32;20428;-71
2022/07/20 01:03:14;;;;;;;1.67;1.02;;;29.60;54.70;;;;;;10979955;32;20386;-71
2022/07/20 01:09:18;;;;;;;1.75;1.20;;;29.50;54.80;;;;;;10979649;32;20053;-71
2022/07/20 01:15:20;;;;;;;2.70;1.60;;;29.50;54.90;;;;;;10978119;32;20023;-71
2022/07/20 01:21:22;;;;;;;2.05;1.35;;;29.50;54.90;;;;;;10975200;32;20042;-71
2022/07/20 01:27:24;;;;;;;2.03;1.25;;;29.50;54.90;;;;;;10979339;32;20053;-71
2022/07/20 01:33:26;;;;;;;1.67;1.15;;;29.30;55.10;;;;;;10979451;32;20339;-71
2022/07/20 01:39:28;;;;;;;2.92;1.55;;;29.20;55.30;;;;;;10979179;32;20026;-71
2022/07/20 01:45:31;;;;;;;1.58;1.05;;;29.30;55.30;;;;;;10980303;32;20022;-71
2022/07/20 01:51:33;;;;;;;3.50;1.95;;;29.30;55.40;;;;;;10979730;32;20421;-71
2022/07/20 01:57:35;;;;;;;4.10;1.90;;;29.30;55.30;;;;;;10986161;32;20070;-71
2022/07/20 02:03:38;;;;;;;3.62;2.35;;;29.20;55.30;;;;;;10986029;32;20041;-71
2022/07/20 02:09:40;;;;;;;3.03;2.00;;;29.20;55.20;;;;;;10985934;32;20030;-71
2022/07/20 02:22:03;;;;;;;12.07;2.28;;;29.10;55.20;;;;;;10985921;32;20035;-71
2022/07/20 02:28:07;;;;;;;7.37;2.25;;;28.80;55.60;;;;;;10984285;32;20058;-71
2022/07/20 02:34:09;;;;;;;5.82;2.00;;;28.70;55.90;;;;;;10980623;32;20057;-71
2022/07/20 02:40:11;;;;;;;2.55;1.75;;;28.70;56.00;;;;;;10984578;32;20069;-71
2022/07/20 02:46:13;;;;;;;2.42;1.62;;;28.70;55.80;;;;;;10984581;32;20031;-71
2022/07/20 02:52:15;;;;;;;2.15;1.52;;;28.70;56.10;;;;;;10984361;32;20054;-71
2022/07/20 02:58:17;;;;;;;2.95;1.65;;;28.60;56.30;;;;;;10983985;32;20053;-71
2022/07/20 03:04:32;;;;;;;2.80;1.55;;;28.40;56.30;;;;;;10982887;32;20053;-71
2022/07/20 03:10:37;;;;;;;2.92;1.20;;;28.30;56.50;;;;;;10983683;32;20050;-71
2022/07/20 03:16:39;;;;;;;4.97;2.17;;;28.30;56.60;;;;;;10983322;32;20035;-71
2022/07/20 03:22:41;;;;;;;7.28;2.08;;;28.30;56.70;;;;;;10983296;32;20031;-71
2022/07/20 03:28:44;;;;;;;2.12;1.62;;;28.30;56.80;;;;;;10982882;32;20031;-71
2022/07/20 03:35:17;;;;;;;2.45;1.60;;;28.20;56.90;;;;;;10982754;32;20343;-71
2022/07/20 03:41:19;;;;;;;2.20;1.33;;;28.20;57.00;;;;;;10982477;32;20049;-71
2022/07/20 03:47:22;;;;;;;5.35;1.75;;;28.10;57.00;;;;;;10977948;32;20334;-71
2022/07/20 03:53:24;;;;;;;1.73;1.50;;;28.10;57.00;;;;;;10982147;32;20417;-71
2022/07/20 03:59:26;;;;;;;3.55;1.73;;;28.10;57.10;;;;;;10977578;32;20026;-71
2022/07/20 04:05:29;;;;;;;3.80;2.45;;;28.20;56.90;;;;;;10981681;32;20042;-71
2022/07/20 04:11:31;;;;;;;2.50;1.77;;;28.20;56.70;;;;;;10977148;32;20326;-71
2022/07/20 04:17:33;;;;;;;2.62;1.87;;;28.20;56.60;;;;;;10980915;32;20019;-71
2022/07/20 04:23:35;;;;;;;2.97;1.70;;;28.20;56.80;;;;;;10973084;32;20050;-71
2022/07/20 04:29:37;;;;;;;4.57;1.58;;;28.30;56.80;;;;;;10983973;27;20042;-71
2022/07/20 04:35:39;;;;;;;4.32;1.73;;;28.20;56.80;;;;;;10980655;32;20018;-71
2022/07/20 04:41:42;;;;;;;1.23;1.12;;;28.10;56.90;;;;;;10980345;32;20023;-71
2022/07/20 04:47:45;;;;;;;2.08;1.62;;;28.10;57.00;;;;;;10980201;32;20084;-71
2022/07/20 04:53:47;;;;;;;3.53;2.37;;;28.10;57.00;;;;;;10980117;32;20010;-71
2022/07/20 04:59:50;;;;;;;3.22;1.70;;;28.20;57.00;;;;;;10954604;32;20049;-71
2022/07/20 05:05:52;;;;;;;4.37;2.25;;;28.30;57.10;;;;;;10942218;32;20027;-71
2022/07/20 05:11:56;;;;;;;5.82;2.55;;;28.40;57.10;;;;;;10940834;32;20023;-72
2022/07/20 05:17:58;;;;;;;6.75;3.17;;;28.50;56.90;;;;;;10941761;32;20023;-71
2022/07/20 05:24:00;;;;;;;5.18;3.40;;;28.60;56.60;;;;;;10949473;32;20057;-71
2022/07/20 05:30:04;;;;;;;3.97;2.75;;;28.60;56.50;;;;;;10984825;32;20395;-71
2022/07/20 05:36:06;;;;;;;6.20;4.20;;;28.60;56.40;;;;;;10987096;32;20045;-71
2022/07/20 05:42:08;;;;;;;7.87;3.95;;;28.60;56.50;;;;;;10986740;32;20425;-70
2022/07/20 05:48:11;;;;;;;14.52;5.12;;;28.70;56.40;;;;;;10968820;32;20022;-72
2022/07/20 05:54:21;;;;;;;9.07;6.32;;;28.80;56.20;;;;;;10982029;32;20027;-69
2022/07/20 06:00:23;;;;;;;9.25;5.25;;;28.90;55.80;;;;;;10945761;32;20399;-70
2022/07/20 06:06:25;;;;;;;8.35;5.28;;;29.00;55.70;;;;;;10945397;32;20062;-70
2022/07/20 06:12:33;;;;;;;7.50;4.85;;;29.10;55.50;;;;;;10944821;32;20015;-70
2022/07/20 06:18:35;;;;;;;9.35;5.47;;;29.30;55.30;;;;;;10943304;32;20089;-69
2022/07/20 06:24:38;;;;;;;6.68;3.90;;;29.40;54.80;;;;;;10943579;32;20026;-68
2022/07/20 06:30:40;;;;;;;7.53;5.32;;;29.40;54.70;;;;;;10943067;32;20019;-72
2022/07/20 06:36:44;;;;;;;6.70;4.07;;;29.50;54.30;;;;;;10947093;32;20391;-72
2022/07/20 06:42:46;;;;;;;6.20;4.87;;;29.60;54.30;;;;;;10945921;32;20049;-72
2022/07/20 06:48:48;;;;;;;4.53;3.28;;;29.70;54.00;;;;;;10946831;32;20003;-71
2022/07/20 06:54:50;;;;;;;8.85;4.20;;;29.80;54.00;;;;;;10946555;32;20039;-72
2022/07/20 07:00:52;;;;;;;5.70;4.20;;;29.90;53.60;;;;;;10946278;32;20026;-71
2022/07/20 07:06:55;;;;;;;7.85;4.85;;;30.00;53.40;;;;;;10946247;32;20046;-72
2022/07/20 07:13:03;;;;;;;7.72;5.57;;;30.20;53.20;;;;;;10943071;32;20046;-72
2022/07/20 07:19:05;;;;;;;8.77;3.90;;;30.40;52.60;;;;;;10945776;32;20351;-73
2022/07/20 07:25:08;;;;;;;9.43;3.37;;;30.40;52.80;;;;;;10945523;32;20346;-72
2022/07/20 07:31:36;;;;;;;6.57;3.55;;;30.60;52.40;;;;;;10945349;32;20015;-72
2022/07/20 07:37:39;;;;;;;5.77;3.50;;;30.70;51.90;;;;;;10945041;32;20022;-72
2022/07/20 07:43:41;;;;;;;5.37;3.78;;;30.90;51.80;;;;;;10944794;32;20019;-72
2022/07/20 07:49:44;;;;;;;5.85;3.60;;;30.90;51.40;;;;;;10942100;32;20027;-71
2022/07/20 07:55:48;;;;;;;5.75;3.95;;;31.10;51.30;;;;;;10944509;32;20069;-72
2022/07/20 08:01:50;;;;;;;4.75;3.30;;;31.30;50.70;;;;;;10944036;32;20035;-70
2022/07/20 08:07:52;;;;;;;5.30;2.97;;;31.50;50.10;;;;;;10943857;32;20023;-71
2022/07/20 08:13:54;;;;;;;3.87;2.83;;;31.60;48.50;;;;;;10943733;32;20392;-72
2022/07/20 08:19:57;;;;;;;8.20;3.37;;;31.70;48.60;;;;;;10943468;32;20023;-71
2022/07/20 08:25:59;;;;;;;3.58;2.60;;;31.80;47.60;;;;;;10943463;32;20053;-72
2022/07/20 08:32:02;;;;;;;3.97;2.70;;;32.00;46.30;;;;;;10943196;32;20027;-71
2022/07/20 08:38:05;;;;;;;4.75;3.08;;;32.10;44.90;;;;;;10941774;32;20058;-71
2022/07/20 08:44:08;;;;;;;4.93;2.50;;;32.10;44.30;;;;;;10942597;32;20019;-71
2022/07/20 08:50:10;;;;;;;3.70;2.85;;;32.30;44.00;;;;;;10942625;32;20426;-71
2022/07/20 08:56:12;;;;;;;5.05;2.60;;;32.40;42.90;;;;;;10942261;32;20020;-71
2022/07/20 09:02:48;;;;;;;6.05;2.87;;;32.60;43.10;;;;;;10941516;32;20351;-71
2022/07/20 09:09:17;;;;;;;3.65;2.22;;;32.70;42.80;;;;;;10942021;32;20434;-71
2022/07/20 09:15:34;;;;;;;4.07;2.67;;;32.80;42.30;;;;;;10943248;32;20030;-72
2022/07/20 09:21:36;;;;;;;5.57;2.50;;;33.00;41.30;;;;;;10940928;32;20300;-71
2022/07/20 09:27:39;;;;;;;6.00;2.85;;;33.10;40.70;;;;;;10964940;32;20354;-71
2022/07/20 09:34:21;;;;;;;3.40;2.12;;;33.30;40.20;;;;;;10979237;32;20429;-72
2022/07/20 09:40:24;;;;;;;3.42;2.40;;;33.40;39.60;;;;;;10979162;32;20030;-71
2022/07/20 09:46:34;;;;;;;3.20;2.17;;;33.60;38.90;;;;;;10978212;32;20034;-71
2022/07/20 09:52:36;;;;;;;2.85;2.30;;;33.70;38.00;;;;;;10978977;32;20026;-71
2022/07/20 09:58:38;;;;;;;3.22;1.90;;;33.80;37.30;;;;;;10977995;32;20383;-71
2022/07/20 10:04:43;;;;;;;6.53;2.72;;;33.90;37.00;;;;;;10978797;32;20026;-71
2022/07/20 10:10:45;;;;;;;2.55;1.60;;;34.00;35.90;;;;;;10978746;32;20446;-71
2022/07/20 10:16:56;;;;;;;5.57;2.05;;;33.90;36.30;;;;;;10984294;32;20058;-71
2022/07/20 10:23:28;;;;;;;3.35;1.65;;;34.30;35.80;;;;;;10968510;32;20049;-72
2022/07/20 10:29:34;;;;;;;3.75;1.70;;;34.50;35.10;;;;;;10985137;32;20022;-71
2022/07/20 10:35:36;;;;;;;6.60;1.15;;;34.70;34.70;;;;;;10984889;32;20080;-71
2022/07/20 10:42:10;;;;;;;2.87;1.48;;;34.90;34.30;;;;;;10983761;32;20027;-71
2022/07/20 10:48:14;;;;;;;3.33;1.77;;;35.00;33.50;;;;;;10981380;32;20049;-71
2022/07/20 10:54:36;;;;;;;3.47;1.83;;;35.20;33.50;;;;;;10984381;32;20027;-71
2022/07/20 11:00:41;;;;;;;2.42;1.45;;;35.30;34.00;;;;;;10983934;32;20053;-71
2022/07/20 11:06:45;;;;;;;3.80;2.08;;;35.40;33.70;;;;;;10983857;32;20018;-71
2022/07/20 11:13:08;;;;;;;3.85;2.08;;;35.70;33.00;;;;;;10983550;32;20026;-71
2022/07/20 11:19:10;;;;;;;3.83;1.95;;;35.90;32.30;;;;;;10970108;32;20023;-71
2022/07/20 11:25:12;;;;;;;2.78;1.20;;;36.00;32.90;;;;;;10982402;32;20034;-71
2022/07/20 11:31:17;;;;;;;4.43;1.70;;;36.20;32.70;;;;;;10982824;32;20027;-71
2022/07/20 11:37:21;;;;;;;2.33;1.83;;;36.50;31.90;;;;;;10982701;32;20433;-71
2022/07/20 11:43:23;;;;;;;4.53;2.20;;;36.70;31.10;;;;;;10982577;32;20022;-71
2022/07/20 11:49:26;;;;;;;4.10;2.37;;;36.90;31.30;;;;;;10982324;32;20381;-71
2022/07/20 11:55:35;;;;;;;3.55;1.95;;;37.20;30.70;;;;;;10982157;32;20049;-71
2022/07/20 12:01:38;;;;;;;5.00;2.37;;;37.30;30.90;;;;;;10954023;32;20572;-71
2022/07/20 12:14:01;;;;;;;2.17;1.48;;;37.40;30.50;;;;;;10943854;32;20038;-71
2022/07/20 12:20:03;;;;;;;5.72;2.70;;;37.40;31.70;;;;;;10930031;32;20328;-71
2022/07/20 12:26:25;;;;;;;3.20;1.62;;;37.50;31.40;;;;;;10976140;32;20066;-71
2022/07/20 12:33:10;;;;;;;5.07;2.58;;;37.70;31.30;;;;;;10940067;32;20392;-71
2022/07/20 12:39:33;;;;;;;4.37;2.50;;;37.70;30.60;;;;;;10942807;32;20018;-71
2022/07/20 12:45:35;;;;;;;5.70;3.00;;;37.70;31.10;;;;;;10827229;32;20337;-71
2022/07/20 12:52:05;;;;;;;5.07;2.62;;;37.80;31.00;;;;;;10824871;32;20042;-71
2022/07/20 12:58:07;;;;;;;5.82;2.95;;;37.80;31.00;;;;;;10826242;32;20047;-71
2022/07/20 13:04:09;;;;;;;4.82;3.55;;;37.80;30.90;;;;;;10823036;33;20042;-71
2022/07/20 13:10:12;;;;;;;4.68;2.25;;;37.80;31.20;;;;;;10827069;32;20047;-71
2022/07/20 13:16:14;;;;;;;7.55;3.65;;;37.70;30.90;;;;;;10826807;32;20017;-72
2022/07/20 13:22:17;;;;;;;4.93;2.53;;;37.50;30.60;;;;;;10895662;32;20461;-72
2022/07/20 13:28:21;;;;;;;5.85;2.45;;;37.40;30.60;;;;;;10927077;32;20027;-72
2022/07/20 13:34:23;;;;;;;8.18;2.72;;;37.40;30.60;;;;;;10902429;32;20019;-72
2022/07/20 13:40:44;;;;;;;7.75;3.45;;;37.30;30.40;;;;;;10926786;32;20066;-72
2022/07/20 13:46:47;;;;;;;4.32;2.90;;;37.30;30.40;;;;;;10939524;32;20323;-71
2022/07/20 13:52:49;;;;;;;4.15;2.60;;;37.20;30.70;;;;;;10944982;32;20015;-71
2022/07/20 13:58:51;;;;;;;6.12;3.92;;;37.40;30.60;;;;;;10947587;32;20027;-71
2022/07/20 14:04:53;;;;;;;14.35;4.22;;;37.30;30.80;;;;;;10944831;32;20015;-72
2022/07/20 14:11:03;;;;;;;4.95;3.20;;;37.40;30.60;;;;;;10948133;32;20031;-71
2022/07/20 14:17:05;;;;;;;7.25;3.80;;;37.30;30.80;;;;;;10947933;32;20014;-71
2022/07/20 14:23:07;;;;;;;4.22;2.75;;;37.20;30.60;;;;;;10947828;32;20342;-72
2022/07/20 14:29:11;;;;;;;5.22;3.12;;;37.10;30.90;;;;;;10942747;32;20037;-72
2022/07/20 14:35:24;;;;;;;4.07;3.00;;;37.10;31.00;;;;;;10947353;32;20422;-72
2022/07/20 14:41:26;;;;;;;6.40;4.57;;;37.20;30.70;;;;;;10946959;32;20064;-71
2022/07/20 14:47:28;;;;;;;11.10;3.05;;;37.20;30.70;;;;;;10946381;32;20026;-71
2022/07/20 14:53:31;;;;;;;22.60;3.40;;;37.10;30.50;;;;;;10946238;32;20019;-72
2022/07/20 14:59:57;;;;;;;4.87;3.53;;;37.30;30.70;;;;;;10946309;32;20054;-71
2022/07/20 15:06:13;;;;;;;5.07;2.40;;;37.30;30.40;;;;;;10945720;32;20367;-71
2022/07/20 15:12:15;;;;;;;4.05;2.62;;;37.30;30.40;;;;;;10945379;32;20014;-71
2022/07/20 15:18:16;;;;;;;7.22;3.00;;;37.40;30.50;;;;;;10944433;32;20456;-71
2022/07/20 15:24:19;;;;;;;5.80;4.32;;;37.40;30.50;;;;;;10944451;32;20081;-71
2022/07/20 15:30:21;;;;;;;6.97;4.50;;;37.40;30.10;;;;;;10944172;32;20022;-71
2022/07/20 15:36:23;;;;;;;7.43;3.78;;;37.30;29.70;;;;;;10944785;32;20023;-72
2022/07/20 15:42:25;;;;;;;5.47;3.83;;;37.30;29.70;;;;;;10944958;32;20019;-71
2022/07/20 15:48:28;;;;;;;7.10;3.42;;;37.40;29.80;;;;;;10944651;32;20058;-71
2022/07/20 15:54:31;;;;;;;5.97;3.60;;;37.50;29.80;;;;;;10944013;32;20041;-72
2022/07/20 16:00:33;;;;;;;11.05;3.97;;;37.60;29.90;;;;;;10943921;32;20030;-72
2022/07/20 16:06:36;;;;;;;4.30;3.03;;;37.60;29.60;;;;;;10941566;32;20030;-71
2022/07/20 16:12:38;;;;;;;9.23;3.97;;;37.70;29.70;;;;;;10943464;32;20080;-71
2022/07/20 16:18:40;;;;;;;6.57;3.47;;;37.80;29.70;;;;;;10943625;32;20015;-73
2022/07/20 16:24:42;;;;;;;8.75;3.22;;;37.70;29.80;;;;;;10943398;32;20327;-72
2022/07/20 16:30:45;;;;;;;11.60;3.25;;;37.50;29.50;;;;;;10943082;32;20437;-71
2022/07/20 16:37:10;;;;;;;4.30;2.62;;;37.50;29.50;;;;;;10942818;32;20058;-72
2022/07/20 16:43:12;;;;;;;5.87;2.80;;;37.50;29.50;;;;;;10942979;32;20016;-72
2022/07/20 16:49:14;;;;;;;4.85;2.28;;;37.50;29.60;;;;;;10941517;32;20031;-72
2022/07/20 16:55:16;;;;;;;5.22;2.10;;;37.50;29.60;;;;;;10942729;32;20338;-72
2022/07/20 17:01:18;;;;;;;4.90;2.22;;;37.40;29.20;;;;;;10941637;32;20027;-72
2022/07/20 17:07:20;;;;;;;2.90;1.65;;;37.30;29.10;;;;;;10942359;32;20045;-71
2022/07/20 17:13:22;;;;;;;3.10;2.08;;;37.30;28.80;;;;;;10942036;32;20042;-71
2022/07/20 17:19:32;;;;;;;3.90;1.80;;;37.20;28.80;;;;;;10941854;32;20350;-72
2022/07/20 17:25:34;;;;;;;4.40;2.10;;;37.00;29.00;;;;;;10946763;32;20434;-72
2022/07/20 17:31:36;;;;;;;3.35;2.17;;;36.90;28.80;;;;;;10949260;32;20399;-72
2022/07/20 17:37:40;;;;;;;2.67;1.52;;;36.80;29.20;;;;;;10949625;32;20359;-72
2022/07/20 17:43:42;;;;;;;2.75;1.77;;;36.70;29.20;;;;;;10949520;32;20022;-72
2022/07/20 17:49:46;;;;;;;2.97;1.50;;;36.70;29.30;;;;;;10948535;32;20035;-72
2022/07/20 17:55:48;;;;;;;5.22;1.70;;;37.10;29.20;;;;;;10948348;32;20045;-72
2022/07/20 18:01:51;;;;;;;4.05;1.25;;;38.00;28.70;;;;;;10947326;32;20035;-72
2022/07/20 18:07:53;;;;;;;5.40;2.08;;;39.00;28.20;;;;;;10947800;32;20015;-72
2022/07/20 18:13:55;;;;;;;1.83;1.25;;;39.10;28.30;;;;;;10938435;32;20045;-72
2022/07/20 18:19:59;;;;;;;2.35;1.17;;;37.80;30.20;;;;;;10947548;32;20019;-72
2022/07/20 18:26:02;;;;;;;6.97;1.55;;;36.90;31.80;;;;;;10934437;32;20023;-72
2022/07/20 18:32:04;;;;;;;7.60;1.70;;;36.20;33.10;;;;;;10947475;32;20343;-72
2022/07/20 18:38:14;;;;;;;2.08;0.93;;;35.60;34.10;;;;;;10933369;32;20035;-72
2022/07/20 18:44:18;;;;;;;2.33;1.10;;;35.20;35.00;;;;;;10947049;32;20190;-72
2022/07/20 18:50:21;;;;;;;3.08;1.27;;;35.00;35.90;;;;;;10946691;32;20413;-72
2022/07/20 18:56:23;;;;;;;7.40;1.20;;;34.80;36.80;;;;;;10946698;32;20379;-71
2022/07/20 19:02:25;;;;;;;7.18;1.25;;;34.40;37.90;;;;;;10946385;32;20323;-71
2022/07/20 19:08:28;;;;;;;2.30;1.10;;;34.30;38.50;;;;;;10946230;32;20027;-71
2022/07/20 19:14:30;;;;;;;0.90;0.68;;;34.20;38.90;;;;;;10944760;32;20422;-71
2022/07/20 19:20:32;;;;;;;3.75;1.42;;;34.20;39.50;;;;;;10945736;32;20023;-71
2022/07/20 19:26:36;;;;;;;1.58;0.90;;;34.00;40.40;;;;;;10945596;32;20351;-71
2022/07/20 19:32:39;;;;;;;2.17;0.60;;;33.90;40.40;;;;;;10931641;32;20041;-72
2022/07/20 19:38:42;;;;;;;0.60;0.57;;;33.80;40.60;;;;;;10940650;32;20026;-71
2022/07/20 19:44:44;;;;;;;0.62;0.55;;;33.70;40.90;;;;;;10944303;32;20015;-71
2022/07/20 19:50:46;;;;;;;1.40;0.73;;;33.70;41.10;;;;;;10944489;32;20023;-71
2022/07/20 19:56:48;;;;;;;1.85;0.88;;;33.60;41.90;;;;;;10944284;32;20046;-71
2022/07/20 20:02:50;;;;;;;5.32;1.30;;;33.40;42.60;;;;;;10943852;32;20045;-72
2022/07/20 20:08:52;;;;;;;1.75;1.00;;;33.40;42.80;;;;;;10943716;32;20019;-71
2022/07/20 20:14:54;;;;;;;1.62;0.80;;;33.20;43.10;;;;;;10943682;32;20023;-71
2022/07/20 20:20:58;;;;;;;3.12;0.98;;;33.10;44.00;;;;;;10942796;32;20015;-71
2022/07/20 20:27:01;;;;;;;0.82;0.60;;;33.00;44.40;;;;;;10753433;27;6223661;-73
2022/07/20 20:33:03;;;;;;;2.25;1.00;;;32.90;44.60;;;;;;10925457;32;20026;-72
2022/07/20 20:39:05;;;;;;;2.20;0.75;;;32.80;45.20;;;;;;10943049;32;20325;-72
2022/07/20 20:45:07;;;;;;;1.37;0.85;;;32.70;45.30;;;;;;10942773;32;20352;-72
2022/07/20 20:51:09;;;;;;;2.00;0.98;;;32.70;45.60;;;;;;10942690;32;20018;-73
2022/07/20 20:57:12;;;;;;;1.70;0.65;;;32.70;45.80;;;;;;10928979;32;20014;-72
2022/07/20 21:03:14;;;;;;;1.45;0.80;;;32.50;46.60;;;;;;10942145;32;20015;-72
2022/07/20 21:09:18;;;;;;;1.23;0.93;;;32.30;47.60;;;;;;10941804;32;20049;-72
2022/07/20 21:15:20;;;;;;;1.45;0.93;;;32.20;48.40;;;;;;10942012;32;20396;-72
2022/07/20 21:21:22;;;;;;;0.93;0.70;;;32.10;48.90;;;;;;10941864;32;20023;-72
2022/07/20 21:27:24;;;;;;;4.22;0.80;;;32.10;49.10;;;;;;10941641;32;20058;-72
2022/07/20 21:33:39;;;;;;;1.37;0.85;;;32.00;49.20;;;;;;10941660;32;20042;-72
2022/07/20 21:39:43;;;;;;;1.25;0.60;;;31.90;49.20;;;;;;10941551;32;20054;-72
2022/07/20 21:45:48;;;;;;;1.35;0.95;;;31.80;49.60;;;;;;10939008;32;20035;-72
2022/07/20 21:51:50;;;;;;;2.65;0.62;;;31.80;49.70;;;;;;10927899;32;20046;-72
2022/07/20 21:57:54;;;;;;;1.27;0.60;;;31.60;50.00;;;;;;10938132;32;20387;-72
2022/07/20 22:03:55;;;;;;;1.25;0.80;;;31.40;50.20;;;;;;10941062;32;20355;-72
2022/07/20 22:10:05;;;;;;;1.80;1.02;;;31.30;50.30;;;;;;10930281;32;20031;-72
2022/07/20 22:16:13;;;;;;;3.37;1.17;;;31.30;50.20;;;;;;10947925;32;20081;-71
2022/07/20 22:22:15;;;;;;;1.67;0.95;;;31.20;50.50;;;;;;10931197;32;20022;-71
2022/07/20 22:28:17;;;;;;;2.62;1.60;;;31.10;50.80;;;;;;10943495;32;20038;-72
2022/07/20 22:34:22;;;;;;;2.03;1.10;;;30.90;51.00;;;;;;10947346;32;20053;-72
2022/07/20 22:40:25;;;;;;;1.85;1.20;;;30.90;51.10;;;;;;10933694;32;20049;-72
2022/07/20 22:46:27;;;;;;;2.05;1.52;;;30.90;51.10;;;;;;10943858;32;20062;-72
2022/07/20 22:52:30;;;;;;;3.53;1.75;;;30.90;51.60;;;;;;10946840;32;20053;-72
2022/07/20 22:58:32;;;;;;;4.28;1.70;;;30.80;52.00;;;;;;10946541;32;20019;-71
2022/07/20 23:04:36;;;;;;;2.58;1.58;;;30.70;52.70;;;;;;10946332;32;20023;-72
2022/07/20 23:10:38;;;;;;;2.58;1.17;;;30.70;53.00;;;;;;10946236;32;20050;-72
2022/07/20 23:16:43;;;;;;;3.72;2.00;;;30.70;52.80;;;;;;10946012;32;20019;-72
2022/07/20 23:22:46;;;;;;;5.00;1.70;;;30.50;52.90;;;;;;10931254;32;20046;-72
2022/07/20 23:28:48;;;;;;;4.07;2.40;;;30.40;53.10;;;;;;10941253;32;20050;-72
2022/07/20 23:34:50;;;;;;;3.10;2.20;;;30.30;53.20;;;;;;10945249;32;20046;-71
2022/07/20 23:40:52;;;;;;;2.42;1.50;;;30.30;53.10;;;;;;10944965;32;20023;-72
2022/07/20 23:46:54;;;;;;;5.15;1.98;;;30.10;53.20;;;;;;10944853;32;20465;-72
2022/07/20 23:52:57;;;;;;;2.75;1.70;;;30.00;53.40;;;;;;10944468;32;20177;-71
2022/07/20 23:58:59;;;;;;;2.75;1.67;;;30.00;53.40;;;;;;10944365;32;20403;-72
